Time;durP1;ratioP1;P1;durP2;ratioP2;P2;SDS_P1;SDS_P2;PMS_P1;PMS_P2;Temp;Humidity;BMP_temperature;BMP_pressure;BME280_temperature;BME280_humidity;BME280_pressure;Samples;Min_cycle;Max_cycle;Signal;HPM_P1;HPM_P2
2021/12/18 00:02:04;;;;;;;;;;;7.40;99.90;;;5.78;100.00;103570.38;2567487;30;136918;-41
2021/12/18 00:04:31;;;;;;;27.40;11.25;;;7.40;99.90;;;5.81;100.00;103576.44;2565683;30;137261;-41
2021/12/18 00:06:59;;;;;;;22.88;11.75;;;7.40;99.90;;;5.83;100.00;103566.34;2567333;30;138306;-41
2021/12/18 00:09:29;;;;;;;24.73;11.68;;;7.40;99.90;;;5.88;100.00;103566.88;2565539;30;137654;-41
2021/12/18 00:11:59;;;;;;;21.98;10.70;;;7.50;99.90;;;5.94;100.00;103556.56;2567422;30;140174;-41
2021/12/18 00:14:27;;;;;;;25.75;11.15;;;7.50;99.90;;;5.92;100.00;103564.78;2567333;30;138422;-41
2021/12/18 00:16:55;;;;;;;23.67;10.80;;;7.50;99.90;;;5.92;100.00;103561.22;2566911;30;138172;-41
2021/12/18 00:19:25;;;;;;;22.92;10.52;;;7.50;99.90;;;5.86;100.00;103571.56;2568540;30;137500;-41
2021/12/18 00:21:54;;;;;;;25.60;10.80;;;7.50;99.90;;;5.87;100.00;103576.00;2568202;30;137510;-41
2021/12/18 00:24:24;;;;;;;21.77;10.18;;;7.50;99.90;;;5.88;100.00;103572.31;2567448;30;136746;-41
2021/12/18 00:26:52;;;;;;;21.17;10.27;;;7.50;99.90;;;5.93;100.00;103555.69;2568287;30;137443;-41
2021/12/18 00:29:19;;;;;;;20.60;9.63;;;7.60;99.90;;;5.88;100.00;103569.59;2569153;30;137669;-41
2021/12/18 00:31:47;;;;;;;19.38;9.30;;;7.50;99.90;;;5.88;100.00;103560.59;2566638;30;137383;-41
2021/12/18 00:34:14;;;;;;;19.92;9.20;;;7.50;99.90;;;5.87;100.00;103561.56;2569214;30;137158;-41
2021/12/18 00:36:41;;;;;;;20.23;9.45;;;7.50;99.90;;;6.03;100.00;103564.03;2569056;30;139424;-41
2021/12/18 00:39:09;;;;;;;20.60;9.43;;;7.60;99.90;;;5.99;100.00;103562.50;2568070;30;136923;-42
2021/12/18 00:41:59;;;;;;;21.90;10.23;;;7.60;99.90;;;6.04;100.00;103563.94;2569325;30;138256;-41
2021/12/18 00:44:25;;;;;;;20.63;9.88;;;7.60;99.90;;;5.97;100.00;103564.47;2569673;30;137378;-41
2021/12/18 00:46:53;;;;;;;21.90;9.68;;;7.60;99.90;;;5.94;100.00;103567.41;2567648;30;138217;-41
2021/12/18 00:49:22;;;;;;;19.95;8.98;;;7.50;99.90;;;5.87;100.00;103556.16;2568725;30;137573;-41
2021/12/18 00:51:50;;;;;;;21.20;10.05;;;7.50;99.90;;;5.86;100.00;103566.13;2567958;30;138550;-41
2021/12/18 00:54:18;;;;;;;;;;;7.50;99.90;;;5.85;100.00;103572.53;2567159;30;137587;-41
2021/12/18 00:56:45;;;;;;;19.42;8.23;;;7.50;99.90;;;5.72;100.00;103542.78;2569124;30;138199;-40
2021/12/18 00:59:13;;;;;;;22.75;9.55;;;7.50;99.90;;;5.83;100.00;103569.03;2567833;30;138401;-41
2021/12/18 01:01:40;;;;;;;19.50;8.73;;;7.50;99.90;;;5.82;100.00;103569.19;2567807;30;137201;-41
2021/12/18 01:04:08;;;;;;;17.83;9.18;;;7.50;99.90;;;5.80;100.00;103557.59;2568651;30;136620;-41
2021/12/18 01:06:36;;;;;;;22.90;9.75;;;7.50;99.90;;;5.80;100.00;103558.44;2568779;30;138165;-41
2021/12/18 01:09:04;;;;;;;17.52;9.25;;;7.40;99.90;;;5.75;100.00;103566.03;2568001;30;137621;-41
2021/12/18 01:11:45;;;;;;;18.25;9.02;;;7.40;99.90;;;5.80;100.00;103577.41;2566760;30;138506;-41
2021/12/18 01:14:51;;;;;;;20.05;9.13;;;7.40;99.90;;;5.77;100.00;103574.94;2569288;30;137491;-42
2021/12/18 01:22:48;;;;;;;23.05;10.10;;;7.40;99.90;;;5.78;100.00;103576.66;2567235;30;137338;-41
2021/12/18 01:25:20;;;;;;;17.85;8.63;;;7.40;99.90;;;5.81;100.00;103581.84;2567096;30;137023;-41
2021/12/18 01:27:49;;;;;;;22.30;10.15;;;7.40;99.90;;;5.88;100.00;103575.00;2567830;30;137209;-41
2021/12/18 01:30:17;;;;;;;22.35;11.25;;;7.50;99.90;;;5.97;100.00;103567.16;2567591;30;137453;-41
2021/12/18 01:32:45;;;;;;;23.95;11.27;;;7.60;99.90;;;6.02;100.00;103567.72;2567563;30;138192;-41
2021/12/18 01:35:12;;;;;;;;;;;7.60;99.90;;;5.96;100.00;103568.16;2568023;30;138382;-41
2021/12/18 01:38:00;;;;;;;25.13;10.70;;;7.60;99.90;;;6.06;100.00;103566.50;2566184;30;137051;-41
2021/12/18 01:40:30;;;;;;;24.52;11.27;;;7.60;99.90;;;6.05;100.00;103570.19;2568664;30;136973;-41
2021/12/18 01:53:26;;;;;;;26.02;11.05;;;7.70;99.90;;;6.05;100.00;103553.94;2567963;30;138457;-41
2021/12/18 01:55:53;;;;;;;22.77;10.05;;;7.70;99.90;;;6.17;100.00;103558.44;2565724;30;137134;-41
2021/12/18 01:58:24;;;;;;;26.17;11.02;;;7.80;99.90;;;6.11;100.00;103558.91;2567409;30;138353;-41
2021/12/18 02:00:57;;;;;;;24.52;10.73;;;7.70;99.90;;;6.10;100.00;103554.47;2567147;30;137352;-41
2021/12/18 02:03:25;;;;;;;26.25;11.23;;;7.70;99.90;;;6.17;100.00;103553.03;2566710;30;138098;-41
2021/12/18 02:05:54;;;;;;;32.22;13.20;;;7.70;99.90;;;6.29;100.00;103551.22;2567077;30;137525;-41
2021/12/18 02:08:25;;;;;;;30.20;12.55;;;7.80;99.90;;;6.25;100.00;103554.28;2569207;30;138165;-41
2021/12/18 02:11:09;;;;;;;28.23;12.23;;;7.90;99.90;;;6.22;100.00;103558.06;2568098;30;137585;-41
2021/12/18 02:22:02;;;;;;;25.65;11.60;;;7.80;99.90;;;6.25;100.00;103565.13;2566729;30;137621;-41
2021/12/18 02:24:32;;;;;;;26.35;12.70;;;7.80;99.90;;;6.24;100.00;103558.84;2566007;30;138532;-41
2021/12/18 02:27:00;;;;;;;29.08;12.73;;;7.80;99.90;;;6.25;100.00;103552.44;2567704;30;137445;-40
2021/12/18 02:29:31;;;;;;;29.88;12.43;;;7.90;99.90;;;6.19;100.00;103559.19;2567568;30;139292;-41
2021/12/18 02:31:58;;;;;;;27.60;12.05;;;7.80;99.90;;;6.25;100.00;103557.00;2567332;30;137651;-41
2021/12/18 02:34:30;;;;;;;32.97;13.15;;;7.80;99.90;;;6.19;100.00;103548.34;2567807;30;138224;-41
2021/12/18 02:37:05;;;;;;;31.08;12.45;;;7.80;99.90;;;6.19;100.00;103540.22;2567460;30;137478;-41
2021/12/18 02:39:45;;;;;;;31.17;13.10;;;7.80;99.90;;;6.27;100.00;103544.19;2567588;30;138310;-41
2021/12/18 02:42:18;;;;;;;25.88;11.13;;;7.90;99.90;;;6.17;100.00;103546.72;2566800;30;137100;-41
2021/12/18 02:44:47;;;;;;;35.40;14.18;;;7.80;99.90;;;6.16;100.00;103534.16;2564572;30;138689;-41
2021/12/18 02:47:15;;;;;;;;;;;7.80;99.90;;;6.06;100.00;103525.84;2567103;30;137203;-41
2021/12/18 02:49:46;;;;;;;34.15;13.60;;;7.80;99.90;;;6.09;100.00;103525.59;2567072;30;137488;-41
2021/12/18 02:52:15;;;;;;;32.83;13.63;;;7.80;99.90;;;6.15;100.00;103536.00;2567261;30;136719;-41
2021/12/18 02:54:43;;;;;;;30.75;13.55;;;7.80;99.90;;;6.18;100.00;103527.63;2567749;30;137467;-41
2021/12/18 02:57:11;;;;;;;34.70;13.35;;;7.80;99.90;;;6.11;100.00;103520.97;2567975;30;138292;-41
2021/12/18 02:59:50;;;;;;;31.75;13.45;;;7.80;99.90;;;6.11;100.00;103531.81;2567902;30;137740;-41
2021/12/18 03:02:19;;;;;;;28.70;12.30;;;7.70;99.90;;;6.07;100.00;103519.44;2567776;30;137256;-42
2021/12/18 03:04:53;;;;;;;32.40;13.90;;;7.70;99.90;;;6.10;100.00;103532.78;2567904;30;137502;-41
2021/12/18 03:07:25;;;;;;;31.83;13.10;;;7.70;99.90;;;6.08;100.00;103528.44;2564573;30;138301;-41
2021/12/18 03:25:54;;;;;;;33.08;13.60;;;7.60;99.90;;;5.88;100.00;103506.41;2568084;30;137396;-41
2021/12/18 03:28:21;;;;;;;29.83;12.95;;;7.50;99.90;;;5.87;100.00;103512.78;2567335;30;137471;-41
2021/12/18 03:30:49;;;;;;;30.85;13.07;;;7.50;99.90;;;5.82;100.00;103501.44;2565895;30;138459;-41
2021/12/18 03:33:17;;;;;;;35.08;14.27;;;7.50;99.90;;;5.84;100.00;103507.59;2568514;30;137547;-41
2021/12/18 03:35:45;;;;;;;31.13;13.35;;;7.50;99.90;;;5.84;100.00;103510.31;2568493;30;137200;-41
2021/12/18 03:38:13;;;;;;;30.55;13.63;;;7.50;99.90;;;5.85;100.00;103504.78;2567944;30;138484;-41
2021/12/18 03:48:02;;;;;;;31.42;12.23;;;7.50;99.90;;;5.78;100.00;103487.25;2569242;30;137210;-38
2021/12/18 03:50:29;;;;;;;;;;;7.50;99.90;;;5.89;100.00;103502.69;2568870;30;137507;-38
2021/12/18 03:52:57;;;;;;;30.80;13.50;;;7.50;99.90;;;5.90;100.00;103508.03;2567743;30;138352;-38
2021/12/18 03:55:26;;;;;;;33.05;14.23;;;7.50;99.90;;;5.94;100.00;103503.22;2569567;30;137252;-38
2021/12/18 03:57:54;;;;;;;30.65;13.30;;;7.60;99.90;;;6.00;100.00;103513.63;2569950;30;137409;-38
2021/12/18 04:00:22;;;;;;;32.00;13.75;;;7.60;99.90;;;6.10;100.00;103513.81;2571653;30;138116;-38
2021/12/18 04:02:50;;;;;;;;;;;7.70;99.90;;;6.05;100.00;103518.69;2571172;30;141285;-38
2021/12/18 04:05:18;;;;;;;30.75;13.02;;;7.70;99.90;;;6.01;100.00;103509.94;2569184;30;136767;-38
2021/12/18 04:07:49;;;;;;;;;;;7.70;99.90;;;6.03;100.00;103516.13;2570825;30;138436;-38
2021/12/18 04:10:18;;;;;;;31.80;12.63;;;7.70;99.90;;;6.08;100.00;103518.47;2570456;30;138040;-38
2021/12/18 04:12:48;;;;;;;28.55;12.63;;;7.70;99.90;;;6.10;100.00;103530.06;2569097;30;138390;-38
2021/12/18 04:15:15;;;;;;;29.70;12.15;;;7.70;99.90;;;6.10;100.00;103521.94;2570273;30;138451;-38
2021/12/18 04:17:43;;;;;;;27.90;11.52;;;7.70;99.90;;;6.08;100.00;103526.59;2570737;30;137338;-38
2021/12/18 04:20:11;;;;;;;26.08;11.02;;;7.70;99.90;;;6.00;100.00;103527.16;2569427;30;137020;-38
2021/12/18 04:22:38;;;;;;;;;;;7.70;99.90;;;6.06;100.00;103525.84;2569140;30;138574;-38
2021/12/18 04:25:06;;;;;;;26.73;10.68;;;7.70;99.90;;;6.04;100.00;103531.41;2570273;30;138734;-38
2021/12/18 04:27:34;;;;;;;26.35;11.30;;;7.70;99.90;;;5.98;100.00;103518.28;2568027;30;138239;-38
2021/12/18 04:30:03;;;;;;;;;;;7.60;99.90;;;6.01;100.00;103522.63;2570239;30;137061;-38
2021/12/18 04:32:31;;;;;;;21.67;8.98;;;7.70;99.90;;;5.96;100.00;103522.94;2570510;30;137284;-38
2021/12/18 04:34:58;;;;;;;22.60;10.23;;;7.60;99.90;;;5.98;100.00;103530.97;2570790;30;137335;-38
2021/12/18 04:37:26;;;;;;;20.75;9.93;;;7.60;99.90;;;6.04;100.00;103517.84;2570210;30;138152;-38
2021/12/18 04:39:54;;;;;;;20.85;9.60;;;7.70;99.90;;;6.04;100.00;103525.09;2567875;30;137853;-38
2021/12/18 04:42:21;;;;;;;23.75;10.55;;;7.70;99.90;;;6.01;100.00;103525.34;2568975;30;138208;-38
2021/12/18 04:44:49;;;;;;;27.13;11.13;;;7.70;99.90;;;5.96;100.00;103525.63;2569604;30;136885;-38
2021/12/18 04:47:16;;;;;;;28.08;12.00;;;7.60;99.90;;;6.00;100.00;103526.28;2568766;30;138420;-38
2021/12/18 04:49:44;;;;;;;23.23;10.35;;;7.60;99.90;;;5.97;100.00;103523.81;2569703;30;137135;-38
2021/12/18 04:52:12;;;;;;;27.30;11.35;;;7.60;99.90;;;6.01;100.00;103528.03;2567550;30;138908;-38
2021/12/18 04:54:39;;;;;;;27.58;11.05;;;7.60;99.90;;;5.93;100.00;103515.03;2567815;30;137464;-38
2021/12/18 04:57:07;;;;;;;29.35;12.07;;;7.60;99.90;;;5.94;100.00;103526.75;2568712;30;137154;-38
2021/12/18 04:59:42;;;;;;;27.25;12.05;;;7.60;99.90;;;5.86;100.00;103530.91;2568893;30;137630;-38
2021/12/18 05:02:15;;;;;;;27.92;11.82;;;7.50;99.90;;;5.86;100.00;103536.34;2567182;30;139442;-38
2021/12/18 05:04:43;;;;;;;27.42;11.38;;;7.50;99.90;;;5.84;100.00;103537.41;2567411;30;138448;-38
2021/12/18 05:07:11;;;;;;;26.20;12.02;;;7.50;99.90;;;5.82;100.00;103528.53;2569440;30;139142;-38
2021/12/18 05:09:39;;;;;;;28.42;12.27;;;7.50;99.90;;;5.88;100.00;103536.19;2568657;30;138316;-38
2021/12/18 05:12:09;;;;;;;27.60;12.13;;;7.50;99.90;;;5.98;100.00;103536.38;2569243;30;137604;-38
2021/12/18 05:14:37;;;;;;;26.90;11.98;;;7.60;99.90;;;5.89;100.00;103529.81;2567151;30;138400;-38
2021/12/18 05:17:05;;;;;;;24.73;11.50;;;7.50;99.90;;;5.92;100.00;103542.25;2567040;30;139355;-38
2021/12/18 05:19:32;;;;;;;28.55;11.80;;;7.50;99.90;;;5.85;100.00;103534.59;2569333;30;137187;-38
2021/12/18 05:22:00;;;;;;;24.73;11.48;;;7.50;99.90;;;5.89;100.00;103535.22;2568953;30;137567;-38
2021/12/18 05:24:27;;;;;;;25.38;11.30;;;7.50;99.90;;;5.85;100.00;103536.44;2568252;30;137395;-38
2021/12/18 05:26:55;;;;;;;27.60;12.07;;;7.50;99.90;;;5.79;100.00;103531.47;2568957;30;138348;-40
2021/12/18 05:29:22;;;;;;;26.90;10.80;;;7.50;99.90;;;5.87;100.00;103531.75;2569599;30;138263;-38
2021/12/18 05:31:50;;;;;;;24.83;10.55;;;7.50;99.90;;;5.81;100.00;103529.53;2567402;30;137193;-38
2021/12/18 05:34:23;;;;;;;25.95;11.43;;;7.50;99.90;;;5.79;100.00;103526.06;2569362;30;137601;-37
2021/12/18 05:39:28;;;;;;;26.17;10.52;;;7.40;99.90;;;5.74;100.00;103529.97;2570857;30;136706;-38
2021/12/18 05:41:57;;;;;;;23.02;10.02;;;7.40;99.90;;;5.77;100.00;103526.16;2568299;30;137883;-38
2021/12/18 05:44:26;;;;;;;21.80;9.55;;;7.40;99.90;;;5.68;100.00;103519.56;2568070;30;138607;-37
2021/12/18 05:46:55;;;;;;;22.45;9.63;;;7.40;99.90;;;5.69;100.00;103534.84;2569590;30;138392;-38
2021/12/18 05:49:23;;;;;;;23.05;11.10;;;7.40;99.90;;;5.70;100.00;103527.59;2569937;30;137420;-38
2021/12/18 05:51:51;;;;;;;23.42;10.02;;;7.40;99.90;;;5.67;100.00;103530.53;2569025;30;137342;-38
2021/12/18 05:54:18;;;;;;;;;;;7.30;99.90;;;5.66;100.00;103531.53;2567323;30;136768;-37
2021/12/18 05:56:46;;;;;;;25.23;10.68;;;7.30;99.90;;;5.64;100.00;103538.91;2566551;30;138177;-38
2021/12/18 05:59:16;;;;;;;25.30;11.10;;;7.30;99.90;;;5.61;100.00;103543.56;2570386;30;137750;-38
2021/12/18 06:01:44;;;;;;;24.95;10.38;;;7.30;99.90;;;5.62;100.00;103549.84;2569237;30;138447;-38
2021/12/18 06:04:11;;;;;;;25.90;10.70;;;7.30;99.90;;;5.61;100.00;103548.97;2566375;30;136857;-38
2021/12/18 06:06:39;;;;;;;24.95;11.05;;;7.30;99.90;;;5.66;100.00;103547.78;2569602;30;137328;-38
2021/12/18 06:09:07;;;;;;;23.63;10.32;;;7.30;99.90;;;5.66;100.00;103555.91;2568861;30;137408;-38
2021/12/18 06:11:37;;;;;;;25.10;10.68;;;7.30;99.90;;;5.64;100.00;103552.44;2569828;30;139040;-38
2021/12/18 06:14:05;;;;;;;23.20;10.45;;;7.30;99.90;;;5.69;100.00;103552.97;2571206;30;138434;-38
2021/12/18 06:16:33;;;;;;;23.17;9.75;;;7.30;99.90;;;5.67;100.00;103558.47;2565269;30;137741;-38
2021/12/18 06:19:01;;;;;;;23.55;10.40;;;7.30;99.90;;;5.69;100.00;103548.41;2568878;30;138966;-38
2021/12/18 06:21:29;;;;;;;20.67;9.48;;;7.30;99.90;;;5.68;100.00;103557.50;2568071;30;138266;-37
2021/12/18 06:23:57;;;;;;;21.08;9.15;;;7.30;99.90;;;5.66;100.00;103555.91;2569339;30;137557;-38
2021/12/18 06:26:27;;;;;;;21.08;9.82;;;7.30;99.90;;;5.65;100.00;103549.59;2568869;30;137241;-38
2021/12/18 06:28:55;;;;;;;22.40;10.07;;;7.30;99.90;;;5.64;100.00;103544.31;2566944;30;137380;-38
2021/12/18 06:31:33;;;;;;;20.20;8.75;;;7.30;99.90;;;5.64;100.00;103544.31;2567465;30;138270;-38
2021/12/18 06:34:00;;;;;;;22.13;9.45;;;7.30;99.90;;;5.64;100.00;103547.88;2567828;30;139178;-38
2021/12/18 06:36:28;;;;;;;23.40;9.88;;;7.30;99.90;;;5.60;100.00;103538.25;2569033;30;137503;-38
2021/12/18 06:38:56;;;;;;;24.08;9.70;;;7.30;99.90;;;5.63;100.00;103545.28;2568292;30;138088;-38
2021/12/18 06:41:23;;;;;;;25.25;9.90;;;7.30;99.90;;;5.60;100.00;103538.25;2569015;30;139099;-38
2021/12/18 06:43:51;;;;;;;24.77;9.50;;;7.30;99.90;;;5.63;100.00;103542.59;2568031;30;137490;-38
2021/12/18 06:46:19;;;;;;;20.17;9.05;;;7.30;99.90;;;5.60;100.00;103544.53;2568554;30;137770;-38
2021/12/18 06:48:46;;;;;;;20.45;9.05;;;7.30;99.90;;;5.60;100.00;103544.53;2568385;30;138022;-38
2021/12/18 06:51:20;;;;;;;19.63;9.35;;;7.30;99.90;;;5.59;100.00;103545.53;2568229;30;138252;-38
2021/12/18 06:53:47;;;;;;;21.67;9.43;;;7.30;99.90;;;5.60;100.00;103541.84;2567519;30;137908;-38
2021/12/18 06:56:15;;;;;;;20.95;8.73;;;7.30;99.90;;;5.60;100.00;103543.66;2570083;30;138214;-38
2021/12/18 06:58:43;;;;;;;23.63;9.85;;;7.30;99.90;;;5.59;100.00;103533.81;2566314;30;137797;-38
2021/12/18 07:01:10;;;;;;;22.98;8.68;;;7.30;99.90;;;5.60;100.00;103538.25;2569267;30;137848;-38
2021/12/18 07:03:38;;;;;;;24.88;9.88;;;7.30;99.90;;;5.60;100.00;103541.84;2567756;30;138495;-38
2021/12/18 07:06:05;;;;;;;23.00;10.45;;;7.30;99.90;;;5.60;100.00;103539.13;2568742;30;137043;-38
2021/12/18 07:08:33;;;;;;;23.45;9.40;;;7.20;99.90;;;5.60;100.00;103539.13;2567328;30;137662;-38
2021/12/18 07:11:00;;;;;;;19.35;8.52;;;7.30;99.90;;;5.59;100.00;103537.41;2570677;30;137563;-38
2021/12/18 07:13:29;;;;;;;22.40;8.40;;;7.30;99.90;;;5.59;100.00;103537.41;2569224;30;137731;-38
2021/12/18 07:15:56;;;;;;;17.90;8.45;;;7.30;99.90;;;5.59;100.00;103536.53;2569997;30;139281;-38
2021/12/18 07:18:24;;;;;;;19.83;9.23;;;7.20;99.90;;;5.60;100.00;103533.72;2571221;30;137536;-38
2021/12/18 07:20:52;;;;;;;21.35;9.35;;;7.20;99.90;;;5.62;100.00;103533.59;2568588;30;139531;-38
2021/12/18 07:23:20;;;;;;;23.52;10.10;;;7.30;99.90;;;5.61;100.00;103534.56;2565241;30;137492;-36
2021/12/18 07:25:47;;;;;;;23.73;10.25;;;7.30;99.90;;;5.60;100.00;103533.72;2569182;30;136832;-38
2021/12/18 07:28:15;;;;;;;28.95;11.73;;;7.20;99.90;;;5.61;100.00;103529.16;2569402;30;137037;-38
2021/12/18 07:30:47;;;;;;;26.85;10.95;;;7.30;99.90;;;5.61;100.00;103538.16;2570088;30;137850;-37
2021/12/18 07:33:15;;;;;;;22.58;9.63;;;7.20;99.90;;;5.63;100.00;103534.47;2570462;30;137647;-38
2021/12/18 07:35:42;;;;;;;;;;;7.30;99.90;;;5.64;100.00;103538.91;2567682;30;137928;-38
2021/12/18 07:38:11;;;;;;;29.13;11.27;;;7.20;99.90;;;5.64;100.00;103544.31;2571813;30;136635;-38
2021/12/18 07:40:39;;;;;;;24.38;10.50;;;7.30;99.90;;;5.65;100.00;103541.47;2567168;30;138329;-38
2021/12/18 07:43:06;;;;;;;24.92;10.77;;;7.30;99.90;;;5.66;100.00;103543.22;2570553;30;137709;-38
2021/12/18 07:45:34;;;;;;;27.27;10.35;;;7.30;99.90;;;5.67;100.00;103544.09;2569595;30;138224;-38
2021/12/18 07:48:04;;;;;;;26.63;10.88;;;7.30;99.90;;;5.59;100.00;103534.69;2568703;30;137677;-38
2021/12/18 07:50:33;;;;;;;30.20;11.23;;;7.30;99.90;;;5.63;100.00;103543.44;2569463;30;139121;-38
2021/12/18 07:53:00;;;;;;;28.00;10.63;;;7.30;99.90;;;5.63;100.00;103543.44;2571481;30;137563;-38
2021/12/18 07:55:28;;;;;;;23.33;9.90;;;7.30;99.90;;;5.63;100.00;103535.31;2569762;30;138249;-38
2021/12/18 07:57:56;;;;;;;24.98;9.95;;;7.30;99.90;;;5.64;100.00;103544.31;2570262;30;137649;-38
2021/12/18 08:00:25;;;;;;;25.63;10.07;;;7.30;99.90;;;5.63;100.00;103537.16;2569638;30;138172;-38
2021/12/18 08:02:52;;;;;;;29.77;10.93;;;7.30;99.90;;;5.64;100.00;103541.59;2572292;30;137716;-38
2021/12/18 08:05:20;;;;;;;26.90;10.68;;;7.30;99.90;;;5.64;100.00;103541.59;2564950;30;138368;-38
2021/12/18 08:07:47;;;;;;;30.20;11.07;;;7.30;99.90;;;5.66;100.00;103545.06;2568394;30;136830;-38
2021/12/18 08:10:16;;;;;;;26.35;9.85;;;7.30;99.90;;;5.65;100.00;103540.63;2568416;30;138812;-38
2021/12/18 08:12:44;;;;;;;24.40;9.70;;;7.30;99.90;;;5.72;100.00;103550.91;2569138;30;137526;-38
2021/12/18 08:15:11;;;;;;;27.20;9.95;;;7.30;99.90;;;5.76;100.00;103537.97;2567484;30;138547;-38
2021/12/18 08:17:39;;;;;;;24.98;10.35;;;7.40;99.90;;;5.70;100.00;103528.47;2569111;30;138385;-38
2021/12/18 08:20:08;;;;;;;26.02;9.95;;;7.40;99.90;;;5.76;100.00;103530.72;2570067;30;138410;-38
2021/12/18 08:22:36;;;;;;;23.40;9.60;;;7.40;99.90;;;5.78;100.00;103536.00;2569152;30;138142;-38
2021/12/18 08:25:06;;;;;;;;;;;7.40;99.90;;;5.79;100.00;103536.91;2567374;30;138559;-38
2021/12/18 08:27:33;;;;;;;23.40;9.35;;;7.40;99.90;;;5.81;100.00;103529.53;2568320;30;136977;-38
2021/12/18 08:30:01;;;;;;;;;;;7.40;99.90;;;5.83;100.00;103538.41;2570489;30;139165;-37
2021/12/18 08:32:29;;;;;;;23.23;8.90;;;7.40;99.90;;;5.83;100.00;103539.25;2566636;30;137871;-38
2021/12/18 08:34:56;;;;;;;25.17;9.38;;;7.40;99.90;;;5.85;100.00;103533.72;2567352;30;137000;-38
2021/12/18 08:37:24;;;;;;;28.77;10.48;;;7.50;99.90;;;5.87;100.00;103537.19;2569730;30;138330;-38
2021/12/18 08:39:52;;;;;;;25.88;9.88;;;7.50;99.90;;;5.88;100.00;103531.66;2569634;30;138441;-38
2021/12/18 08:42:20;;;;;;;23.60;9.32;;;7.50;99.90;;;5.99;100.00;103532.69;2571103;30;136683;-38
2021/12/18 08:44:47;;;;;;;22.45;8.82;;;7.50;99.90;;;6.00;100.00;103537.13;2569365;30;139266;-38
2021/12/18 08:47:16;;;;;;;23.52;9.23;;;7.60;99.90;;;5.99;100.00;103538.09;2567939;30;137677;-38
2021/12/18 08:49:44;;;;;;;23.55;8.43;;;7.60;99.90;;;6.00;100.00;103534.41;2569780;30;137888;-38
2021/12/18 08:52:11;;;;;;;23.30;9.38;;;7.60;99.90;;;6.03;100.00;103528.78;2569324;30;137498;-38
2021/12/18 08:54:39;;;;;;;23.20;8.80;;;7.60;99.90;;;6.04;100.00;103536.81;2568018;30;138101;-38
2021/12/18 08:57:09;;;;;;;24.98;9.27;;;7.70;99.90;;;6.07;100.00;103533.00;2569474;30;136964;-38
2021/12/18 08:59:38;;;;;;;21.55;8.40;;;7.70;99.90;;;6.08;100.00;103536.59;2568102;30;138937;-38
2021/12/18 09:02:08;;;;;;;24.88;8.98;;;7.60;99.90;;;6.12;100.00;103535.38;2570392;30;137566;-38
2021/12/18 09:04:37;;;;;;;20.73;7.97;;;7.70;99.90;;;6.17;100.00;103534.03;2569601;30;140498;-37
2021/12/18 09:07:07;;;;;;;22.92;8.68;;;7.70;99.90;;;6.18;100.00;103538.47;2569547;30;137719;-38
2021/12/18 09:09:39;;;;;;;19.77;6.85;;;7.70;99.90;;;6.19;100.00;103542.03;2568600;30;137146;-38
2021/12/18 09:12:11;;;;;;;21.70;7.68;;;7.70;99.90;;;6.19;100.00;103539.34;2570232;30;137684;-38
2021/12/18 09:14:40;;;;;;;20.27;7.55;;;7.80;99.90;;;6.20;100.00;103535.63;2568239;30;138446;-38
2021/12/18 09:17:09;;;;;;;18.80;7.22;;;7.80;99.90;;;6.25;100.00;103540.72;2568478;30;137360;-38
2021/12/18 09:19:37;;;;;;;23.38;7.88;;;7.80;99.90;;;6.31;100.00;103534.81;2570694;30;138714;-38
2021/12/18 09:22:06;;;;;;;21.48;7.78;;;7.80;99.90;;;6.28;100.00;103532.34;2568272;30;137575;-38
2021/12/18 09:24:34;;;;;;;20.58;8.07;;;7.90;99.90;;;6.30;100.00;103543.94;2570345;30;138262;-38
2021/12/18 09:27:02;;;;;;;23.90;8.02;;;7.80;99.90;;;6.29;100.00;103534.06;2568616;30;137695;-38
2021/12/18 09:29:30;;;;;;;20.90;7.93;;;7.90;99.90;;;6.33;100.00;103535.56;2570044;30;138480;-38
2021/12/18 09:31:58;;;;;;;24.60;7.82;;;7.90;99.90;;;6.35;100.00;103532.75;2567757;30;137694;-38
2021/12/18 09:34:27;;;;;;;22.80;8.25;;;7.90;99.90;;;6.39;100.00;103537.84;2569052;30;139104;-37
2021/12/18 09:36:55;;;;;;;25.20;8.80;;;8.00;99.90;;;6.41;100.00;103530.44;2567633;30;137886;-38
2021/12/18 09:39:23;;;;;;;;;;;8.00;99.90;;;6.44;100.00;103538.34;2568617;30;137356;-38
2021/12/18 09:41:52;;;;;;;24.25;8.38;;;8.00;99.90;;;6.44;100.00;103541.03;2569287;30;137083;-37
2021/12/18 09:44:38;;;;;;;26.17;9.10;;;8.00;99.90;;;6.49;100.00;103537.97;2569904;30;137628;-38
2021/12/18 09:47:06;;;;;;;24.65;8.38;;;8.00;99.90;;;6.50;100.00;103534.28;2576808;30;137427;-41
2021/12/18 09:49:34;;;;;;;21.40;8.25;;;8.10;99.90;;;6.48;100.00;103528.97;2566511;30;138553;-41
2021/12/18 09:52:02;;;;;;;26.38;10.05;;;8.00;99.90;;;6.48;100.00;103528.09;2567916;30;138586;-41
2021/12/18 09:54:30;;;;;;;22.58;8.40;;;8.00;99.90;;;6.47;100.00;103520.94;2565594;30;137195;-41
2021/12/18 09:56:58;;;;;;;21.58;8.57;;;8.00;99.90;;;6.46;100.00;103525.50;2567646;30;137716;-41
2021/12/18 09:59:25;;;;;;;25.30;8.40;;;8.00;99.90;;;6.46;100.00;103524.63;2569254;30;139369;-41
2021/12/18 10:01:53;;;;;;;27.48;8.73;;;8.00;99.90;;;6.56;100.00;103524.78;2567838;30;136628;-41
2021/12/18 10:04:25;;;;;;;27.48;8.80;;;8.10;99.90;;;6.53;100.00;103527.75;2567439;30;139578;-40
2021/12/18 10:06:54;;;;;;;23.65;9.45;;;8.00;99.90;;;6.54;100.00;103522.22;2567905;30;138361;-41
2021/12/18 10:09:24;;;;;;;23.17;9.45;;;8.10;99.90;;;6.61;100.00;103522.56;2568332;30;139028;-41
2021/12/18 10:12:14;;;;;;;24.98;9.73;;;8.10;99.90;;;6.59;100.00;103511.88;2567742;30;138464;-41
2021/12/18 10:14:55;;;;;;;25.40;10.20;;;8.10;99.90;;;6.60;100.00;103524.44;2567327;30;137480;-41
2021/12/18 10:17:39;;;;;;;21.98;9.43;;;8.20;99.90;;;6.55;100.00;103513.09;2565284;30;137568;-41
2021/12/18 10:20:09;;;;;;;22.27;8.88;;;8.10;99.90;;;6.58;100.00;103518.28;2567858;30;138589;-41
2021/12/18 10:23:05;;;;;;;26.58;9.27;;;8.10;99.90;;;6.57;100.00;103511.13;2568141;30;136888;-41
2021/12/18 10:25:43;;;;;;;26.33;8.90;;;8.10;99.90;;;6.65;100.00;103515.06;2566900;30;138328;-41
2021/12/18 10:28:21;;;;;;;26.23;9.30;;;8.20;99.90;;;6.64;100.00;103511.50;2568824;30;137564;-41
2021/12/18 10:30:57;;;;;;;29.23;11.43;;;8.20;99.90;;;6.69;100.00;103512.00;2568272;30;137671;-41
2021/12/18 10:33:31;;;;;;;27.02;9.98;;;8.20;99.90;;;6.66;100.00;103505.94;2568463;30;136960;-41
2021/12/18 10:36:01;;;;;;;27.23;10.90;;;8.20;99.90;;;6.72;100.00;103500.03;2566956;30;137391;-41
2021/12/18 10:38:49;;;;;;;30.30;10.80;;;8.20;99.90;;;6.71;100.00;103501.91;2567732;30;137892;-41
2021/12/18 10:41:34;;;;;;;27.85;10.82;;;8.30;99.90;;;6.67;100.00;103502.25;2569156;30;138453;-41
2021/12/18 10:44:11;;;;;;;31.33;11.95;;;8.20;99.90;;;6.68;100.00;103504.84;2567700;30;137870;-41
2021/12/18 10:46:45;;;;;;;33.15;13.15;;;8.20;99.90;;;6.68;100.00;103496.72;2566456;30;136869;-41
2021/12/18 10:49:18;;;;;;;37.70;13.10;;;8.20;99.90;;;6.66;100.00;103501.41;2568442;30;138467;-41
2021/12/18 10:51:54;;;;;;;30.30;12.23;;;8.20;99.90;;;6.65;100.00;103490.66;2567985;30;138310;-41
2021/12/18 10:54:23;;;;;;;36.38;13.50;;;8.20;99.90;;;6.67;100.00;103494.09;2568153;30;137566;-41
2021/12/18 10:56:55;;;;;;;38.80;13.93;;;8.20;99.90;;;6.65;100.00;103485.22;2567732;30;137217;-41
2021/12/18 10:59:25;;;;;;;37.47;14.30;;;8.20;99.90;;;6.68;100.00;103484.97;2566789;30;137568;-41
2021/12/18 11:02:09;;;;;;;35.70;13.93;;;8.20;99.90;;;6.62;100.00;103492.63;2568179;30;140166;-41
2021/12/18 11:04:40;;;;;;;33.35;13.43;;;8.20;99.90;;;6.60;100.00;103491.88;2566351;30;137769;-41
2021/12/18 11:07:19;;;;;;;34.45;13.75;;;8.20;99.90;;;6.60;100.00;103488.28;2567996;30;138314;-41